createdAt,value
2018-07-28T00:01:38.338Z,95459.02
2018-07-28T00:04:09.146Z,95460.25
2018-07-28T00:06:39.533Z,95460.63
2018-07-28T00:09:12.043Z,95457.08
2018-07-28T00:12:30.616Z,95453.25
2018-07-28T00:15:01.092Z,95456.02
2018-07-28T00:17:31.642Z,95460.64
2018-07-28T00:20:02.094Z,95454.77
2018-07-28T00:22:32.640Z,95449.09
2018-07-28T00:25:03.073Z,95452.09
2018-07-28T00:27:34.070Z,95453.26
2018-07-28T00:30:05.116Z,95452.88
2018-07-28T00:32:35.512Z,95442.23
2018-07-28T00:35:06.044Z,95440.80
2018-07-28T00:37:36.778Z,95445.83
2018-07-28T00:40:08.101Z,95446.88
2018-07-28T00:42:38.696Z,95444.61
2018-07-28T00:45:08.802Z,95453.88
2018-07-28T00:47:39.218Z,95442.61
2018-07-28T00:50:10.501Z,95446.56
2018-07-28T00:52:40.930Z,95447.88
2018-07-28T00:55:11.420Z,95440.10
2018-07-28T00:57:41.811Z,95437.59
2018-07-28T01:00:12.564Z,95433.36
2018-07-28T01:03:30.960Z,95439.27
2018-07-28T01:06:01.352Z,95437.52
2018-07-28T01:08:31.777Z,95434.78
2018-07-28T01:11:02.129Z,95433.36
2018-07-28T01:13:32.925Z,95430.72
2018-07-28T01:16:03.520Z,95428.66
2018-07-28T01:18:34.250Z,95429.16
2018-07-28T01:21:04.694Z,95428.84
2018-07-28T01:23:35.447Z,95430.43
2018-07-28T01:26:06.206Z,95427.13
2018-07-28T01:35:48.769Z,95426.56
2018-07-28T01:38:19.205Z,95416.17
2018-07-28T01:40:49.641Z,95417.75
2018-07-28T01:43:20.065Z,95416.60
2018-07-28T01:45:50.454Z,95415.86
2018-07-28T01:56:29.417Z,95405.98
2018-07-28T01:59:00.104Z,95416.24
2018-07-28T02:01:30.712Z,95412.15
2018-07-28T02:04:01.472Z,95411.66
2018-07-28T02:06:32.521Z,95413.69
2018-07-28T02:09:03.140Z,95413.53
2018-07-28T02:11:33.618Z,95412.02
2018-07-28T02:14:04.060Z,95410.17
2018-07-28T02:16:34.557Z,95413.55
2018-07-28T02:19:05.335Z,95412.00
2018-07-28T02:21:35.815Z,95407.41
2018-07-28T02:24:06.286Z,95407.67
2018-07-28T02:26:38.727Z,95411.30
2018-07-28T02:29:10.717Z,95416.38
2018-07-28T02:31:41.552Z,95417.20
2018-07-28T02:34:11.960Z,95411.53
2018-07-28T02:36:42.407Z,95405.52
2018-07-28T02:39:12.932Z,95413.80
2018-07-28T02:41:43.480Z,95409.19
2018-07-28T02:44:13.881Z,95417.68
2018-07-28T02:46:44.280Z,95414.31
2018-07-28T02:49:14.678Z,95409.27
2018-07-28T02:51:45.116Z,95411.28
2018-07-28T02:54:15.632Z,95408.06
2018-07-28T02:56:46.052Z,95403.02
2018-07-28T02:59:16.462Z,95404.53
2018-07-28T03:01:46.926Z,95405.16
2018-07-28T03:04:17.370Z,95406.25
2018-07-28T03:06:47.766Z,95405.32
2018-07-28T03:09:18.562Z,95409.33
2018-07-28T03:11:48.980Z,95411.02
2018-07-28T03:14:19.692Z,95404.28
2018-07-28T03:16:49.893Z,95408.72
2018-07-28T03:19:20.244Z,95411.33
2018-07-28T03:21:50.698Z,95404.73
2018-07-28T03:24:21.034Z,95404.91
2018-07-28T03:26:51.412Z,95410.11
2018-07-28T03:29:22.154Z,95412.41
2018-07-28T03:31:52.606Z,95416.41
2018-07-28T03:34:22.992Z,95407.64
2018-07-28T03:36:53.400Z,95404.41
2018-07-28T03:39:23.838Z,95409.34
2018-07-28T03:41:54.198Z,95409.95
2018-07-28T03:44:24.620Z,95416.85
2018-07-28T03:46:55.024Z,95413.66
2018-07-28T03:49:25.424Z,95413.97
2018-07-28T03:51:55.976Z,95416.85
2018-07-28T03:54:26.374Z,95421.48
2018-07-28T03:56:56.757Z,95416.72
2018-07-28T03:59:27.106Z,95412.85
2018-07-28T04:01:58.393Z,95419.02
2018-07-28T04:04:28.808Z,95424.53
2018-07-28T04:06:59.180Z,95428.83
2018-07-28T04:09:29.558Z,95433.13
2018-07-28T04:11:59.994Z,95434.92
2018-07-28T04:14:30.612Z,95432.48
2018-07-28T04:17:01.208Z,95434.78
2018-07-28T04:19:31.542Z,95432.34
2018-07-28T04:22:01.958Z,95434.88
2018-07-28T04:24:32.300Z,95434.10
2018-07-28T04:27:02.747Z,95438.17
2018-07-28T04:29:33.277Z,95445.99
2018-07-28T04:32:04.530Z,95442.61
2018-07-28T04:34:35.064Z,95447.45
2018-07-28T04:37:05.520Z,95446.86
2018-07-28T04:39:36.094Z,95444.52
2018-07-28T04:42:06.766Z,95447.83
2018-07-28T04:44:37.232Z,95444.89
2018-07-28T04:50:44.236Z,95445.16
2018-07-28T04:53:14.721Z,95445.22
2018-07-28T04:55:45.129Z,95447.09
2018-07-28T04:58:15.474Z,95445.32
2018-07-28T05:00:45.997Z,95441.42
2018-07-28T05:06:52.291Z,95454.39
2018-07-28T05:09:22.638Z,95447.50
2018-07-28T05:11:52.975Z,95446.88
2018-07-28T05:14:23.974Z,95451.97
2018-07-28T05:16:54.362Z,95458.12
2018-07-28T05:19:24.784Z,95463.61
2018-07-28T05:21:55.136Z,95463.47
2018-07-28T05:24:25.514Z,95460.70
2018-07-28T05:26:55.870Z,95473.61
2018-07-28T05:29:26.276Z,95471.06
2018-07-28T05:31:56.378Z,95462.44
2018-07-28T05:34:26.501Z,95459.05
2018-07-28T05:36:57.135Z,95452.21
2018-07-28T05:39:27.365Z,95460.52
2018-07-28T05:41:57.802Z,95459.64
2018-07-28T05:44:27.909Z,95455.07
2018-07-28T05:46:58.044Z,95445.50
2018-07-28T05:49:28.100Z,95432.39
2018-07-28T05:51:58.217Z,95443.45
2018-07-28T05:54:28.469Z,95445.98
2018-07-28T05:56:58.554Z,95445.30
2018-07-28T05:59:28.982Z,95448.36
2018-07-28T06:01:59.883Z,95443.63
2018-07-28T06:04:29.940Z,95431.10
2018-07-28T06:07:01.695Z,95434.27
2018-07-28T06:09:31.829Z,95434.36
2018-07-28T06:12:01.947Z,95424.74
2018-07-28T06:14:32.453Z,95430.38
2018-07-28T06:17:02.857Z,95424.12
2018-07-28T06:19:33.295Z,95434.64
2018-07-28T06:22:03.681Z,95437.98
2018-07-28T06:24:34.596Z,95440.48
2018-07-28T06:27:05.351Z,95439.06
2018-07-28T06:29:35.776Z,95450.41
2018-07-28T06:35:42.790Z,95486.59
2018-07-28T06:38:13.249Z,95478.33
2018-07-28T06:40:43.658Z,95482.70
2018-07-28T06:43:14.027Z,95487.86
2018-07-28T06:45:44.507Z,95492.60
2018-07-28T06:48:15.020Z,95501.98
2018-07-28T06:50:45.434Z,95508.89
2018-07-28T06:53:15.802Z,95512.42
2018-07-28T06:55:46.160Z,95514.52
2018-07-28T06:58:16.667Z,95532.24
2018-07-28T07:00:47.100Z,95535.66
2018-07-28T07:03:17.567Z,95541.86
2018-07-28T07:05:48.031Z,95547.20
2018-07-28T07:08:18.726Z,95556.83
2018-07-28T07:10:49.243Z,95568.22
2018-07-28T07:13:19.690Z,95569.95
2018-07-28T07:15:50.025Z,95605.91
2018-07-28T07:18:20.415Z,95628.97
2018-07-28T07:20:50.919Z,95633.45
2018-07-28T07:23:21.649Z,95647.13
2018-07-28T07:25:52.289Z,95647.25
2018-07-28T07:28:22.646Z,95653.19
2018-07-28T07:30:53.065Z,95656.00
2018-07-28T07:33:24.097Z,95676.11
2018-07-28T07:35:55.079Z,95686.45
2018-07-28T07:38:25.553Z,95699.54
2018-07-28T07:40:56.081Z,95729.83
2018-07-28T07:43:26.515Z,95738.01
2018-07-28T07:45:57.046Z,95730.20
2018-07-28T07:48:27.581Z,95726.12
2018-07-28T07:50:58.137Z,95726.02
2018-07-28T07:53:28.625Z,95718.08
2018-07-28T07:55:59.073Z,95715.38
2018-07-28T07:58:29.509Z,95729.12
2018-07-28T08:01:00.399Z,95716.38
2018-07-28T08:03:30.959Z,95710.80
2018-07-28T08:06:01.577Z,95720.67
2018-07-28T08:08:32.079Z,95711.27
2018-07-28T08:11:02.656Z,95704.05
2018-07-28T08:13:33.118Z,95690.66
2018-07-28T08:16:03.781Z,95701.27
2018-07-28T08:18:34.255Z,95697.39
2018-07-28T08:21:05.533Z,95687.83
2018-07-28T08:23:36.297Z,95680.49
2018-07-28T08:26:07.773Z,95681.88
2018-07-28T08:28:38.808Z,95677.24
2018-07-28T08:31:08.853Z,95681.11
2018-07-28T08:33:39.855Z,95686.16
2018-07-28T08:36:10.394Z,95679.81
2018-07-28T08:38:40.858Z,95664.73
2018-07-28T08:41:11.443Z,95670.72
2018-07-28T08:43:41.884Z,95669.77
2018-07-28T08:46:12.944Z,95670.59
2018-07-28T08:48:44.633Z,95675.33
2018-07-28T08:51:16.142Z,95674.93
2018-07-28T08:53:46.654Z,95682.64
2018-07-28T08:56:17.996Z,95692.38
2018-07-28T08:58:48.626Z,95710.09
2018-07-28T09:01:19.648Z,95723.61
2018-07-28T09:03:50.086Z,95728.98
2018-07-28T09:06:21.758Z,95734.14
2018-07-28T09:08:52.379Z,95733.64
2018-07-28T09:11:23.307Z,95695.69
2018-07-28T09:13:54.670Z,95689.44
2018-07-28T09:16:25.772Z,95704.79
2018-07-28T09:18:59.580Z,95709.59
2018-07-28T09:21:30.623Z,95722.79
2018-07-28T09:24:01.466Z,95733.61
2018-07-28T09:26:32.573Z,95728.98
2018-07-28T09:29:03.084Z,95730.94
2018-07-28T09:31:33.602Z,95723.58
2018-07-28T09:34:04.824Z,95728.53
2018-07-28T09:37:29.793Z,95734.00
2018-07-28T09:40:00.228Z,95740.28
2018-07-28T09:42:31.521Z,95734.02
2018-07-28T09:45:02.308Z,95724.73
2018-07-28T09:47:33.649Z,95727.25
2018-07-28T09:50:04.740Z,95723.47
2018-07-28T09:52:36.126Z,95729.66
2018-07-28T09:55:06.369Z,95730.91
2018-07-28T09:57:37.948Z,95722.40
2018-07-28T10:00:08.882Z,95721.31
2018-07-28T10:02:39.777Z,95730.34
2018-07-28T10:05:10.284Z,95735.30
2018-07-28T10:07:40.952Z,95728.12
2018-07-28T10:10:11.446Z,95726.97
2018-07-28T10:12:42.999Z,95721.06
2018-07-28T10:18:50.700Z,95733.66
2018-07-28T10:21:21.208Z,95736.69
2018-07-28T10:23:51.776Z,95739.18
2018-07-28T10:26:22.293Z,95743.84
2018-07-28T10:28:52.788Z,95741.41
2018-07-28T10:31:23.348Z,95736.98
2018-07-28T10:33:55.108Z,95736.40
2018-07-28T10:36:25.857Z,95734.92
2018-07-28T10:38:56.512Z,95741.28
2018-07-28T10:41:27.035Z,95740.86
2018-07-28T10:43:57.578Z,95738.70
2018-07-28T10:46:29.478Z,95738.08
2018-07-28T10:48:59.928Z,95739.87
2018-07-28T10:51:30.510Z,95736.68
2018-07-28T10:54:01.844Z,95731.41
2018-07-28T10:56:32.740Z,95727.34
2018-07-28T10:59:04.000Z,95723.42
2018-07-28T11:01:34.466Z,95717.93
2018-07-28T11:04:05.664Z,95716.63
2018-07-28T11:06:37.370Z,95724.56
2018-07-28T11:09:10.248Z,95722.59
2018-07-28T11:11:41.006Z,95731.31
2018-07-28T11:14:11.588Z,95742.60
2018-07-28T11:16:42.156Z,95744.28
2018-07-28T11:19:12.658Z,95756.23
2018-07-28T11:21:43.178Z,95768.27
2018-07-28T11:24:14.289Z,95779.48
2018-07-28T11:26:44.830Z,95770.89
2018-07-28T11:29:15.314Z,95775.56
2018-07-28T11:32:02.630Z,95787.80
2018-07-28T11:34:49.938Z,95789.30
2018-07-28T11:37:34.484Z,95796.81
2018-07-28T11:40:21.632Z,95798.80
2018-07-28T11:43:08.698Z,95810.05
2018-07-28T11:45:39.409Z,95809.23
2018-07-28T11:48:09.927Z,95814.24
2018-07-28T11:50:40.416Z,95815.22
2018-07-28T11:53:10.827Z,95814.13
2018-07-28T11:55:41.434Z,95822.78
2018-07-28T11:58:12.043Z,95823.63
2018-07-28T12:00:43.198Z,95820.16
2018-07-28T12:03:14.496Z,95817.19
2018-07-28T12:05:44.934Z,95821.21
2018-07-28T12:08:15.589Z,95823.03
2018-07-28T12:10:46.134Z,95822.77
2018-07-28T12:13:17.054Z,95823.17
2018-07-28T12:15:47.574Z,95828.64
2018-07-28T12:18:18.570Z,95828.22
2018-07-28T12:20:49.216Z,95826.03
2018-07-28T12:23:19.665Z,95826.02
2018-07-28T12:25:50.221Z,95828.31
2018-07-28T12:28:20.746Z,95825.93
2018-07-28T12:30:51.362Z,95831.07
2018-07-28T12:33:22.708Z,95828.06
2018-07-28T12:35:53.168Z,95826.94
2018-07-28T12:38:24.112Z,95830.75
2018-07-28T12:40:54.678Z,95828.56
2018-07-28T12:43:25.439Z,95828.58
2018-07-28T12:45:55.908Z,95836.75
2018-07-28T12:48:26.434Z,95827.67
2018-07-28T12:50:58.518Z,95833.98
2018-07-28T12:53:29.098Z,95834.17
2018-07-28T12:55:59.701Z,95833.86
2018-07-28T12:58:30.438Z,95832.76
2018-07-28T13:01:00.908Z,95827.80
2018-07-28T13:03:31.425Z,95828.95
2018-07-28T13:06:01.989Z,95831.84
2018-07-28T13:08:32.484Z,95833.66
2018-07-28T13:11:03.508Z,95832.17
2018-07-28T13:13:33.886Z,95832.84
2018-07-28T13:16:04.420Z,95828.90
2018-07-28T13:18:34.980Z,95833.14
2018-07-28T13:21:05.815Z,95826.67
2018-07-28T13:23:36.942Z,95826.97
2018-07-28T13:26:08.442Z,95818.06
2018-07-28T13:28:39.562Z,95819.13
2018-07-28T13:31:11.065Z,95824.06
2018-07-28T13:33:41.554Z,95815.30
2018-07-28T13:36:12.208Z,95825.16
2018-07-28T13:38:42.635Z,95833.36
2018-07-28T13:41:13.262Z,95837.63
2018-07-28T13:43:44.069Z,95832.97
2018-07-28T13:46:15.734Z,95828.29
2018-07-28T13:48:46.185Z,95846.08
2018-07-28T13:51:16.718Z,95843.20
2018-07-28T13:53:48.578Z,95853.46
2018-07-28T13:56:19.284Z,95860.75
2018-07-28T13:58:49.955Z,95859.56
2018-07-28T14:01:20.437Z,95862.05
2018-07-28T14:03:51.579Z,95853.08
2018-07-28T14:06:23.109Z,95852.23
2018-07-28T14:08:55.545Z,95841.41
2018-07-28T14:11:26.915Z,95834.69
2018-07-28T14:13:57.757Z,95837.63
2018-07-28T14:16:29.241Z,95837.63
2018-07-28T14:18:59.606Z,95843.14
2018-07-28T14:21:30.053Z,95845.66
2018-07-28T14:24:00.847Z,95839.70
2018-07-28T14:26:31.471Z,95837.30
2018-07-28T14:29:02.245Z,95835.61
2018-07-28T14:31:33.365Z,95845.77
2018-07-28T14:34:03.936Z,95841.56
2018-07-28T14:36:34.705Z,95849.48
2018-07-28T14:39:07.775Z,95849.70
2018-07-28T14:41:38.583Z,95847.47
2018-07-28T14:44:09.277Z,95847.66
2018-07-28T14:46:39.871Z,95844.63
2018-07-28T14:49:10.357Z,95852.52
2018-07-28T14:51:41.197Z,95846.08
2018-07-28T14:54:11.703Z,95843.06
2018-07-28T14:56:43.065Z,95836.16
2018-07-28T14:59:13.605Z,95846.16
2018-07-28T15:01:44.367Z,95837.91
2018-07-28T15:04:14.957Z,95827.50
2018-07-28T15:06:45.377Z,95832.21
2018-07-28T15:09:15.733Z,95828.84
2018-07-28T15:11:46.588Z,95829.69
2018-07-28T15:14:17.072Z,95822.05
2018-07-28T15:16:47.836Z,95821.52
2018-07-28T15:19:18.250Z,95821.15
2018-07-28T15:21:48.775Z,95823.19
2018-07-28T15:24:19.283Z,95822.28
2018-07-28T15:26:49.693Z,95825.21
2018-07-28T15:29:20.129Z,95832.45
2018-07-28T15:31:50.569Z,95832.34
2018-07-28T15:34:21.208Z,95834.08
2018-07-28T15:36:51.850Z,95829.47
2018-07-28T15:39:22.440Z,95835.03
2018-07-28T15:41:53.597Z,95825.94
2018-07-28T15:44:23.947Z,95823.67
2018-07-28T15:46:54.429Z,95829.48
2018-07-28T15:49:25.777Z,95830.26
2018-07-28T15:51:56.637Z,95833.84
2018-07-28T15:54:27.089Z,95830.11
2018-07-28T15:56:57.808Z,95830.06
2018-07-28T15:59:28.315Z,95828.74
2018-07-28T16:01:58.917Z,95819.88
2018-07-28T16:04:29.573Z,95822.39
2018-07-28T16:07:00.817Z,95823.00
2018-07-28T16:09:31.375Z,95827.27
2018-07-28T16:12:02.714Z,95827.45
2018-07-28T16:14:33.389Z,95828.18
2018-07-28T16:17:04.068Z,95833.36
2018-07-28T16:19:35.725Z,95833.02
2018-07-28T16:22:06.189Z,95833.52
2018-07-28T16:24:36.744Z,95824.83
2018-07-28T16:27:07.533Z,95826.99
2018-07-28T16:29:37.970Z,95820.36
2018-07-28T16:32:13.101Z,95811.54
2018-07-28T16:34:44.021Z,95817.00
2018-07-28T16:37:14.497Z,95807.34
2018-07-28T16:39:45.559Z,95804.88
2018-07-28T16:42:16.138Z,95808.58
2018-07-28T16:44:47.029Z,95811.36
2018-07-28T16:47:17.879Z,95816.81
2018-07-28T16:49:48.265Z,95818.17
2018-07-28T16:52:19.044Z,95821.90
2018-07-28T16:54:50.215Z,95835.73
2018-07-28T16:57:21.009Z,95835.35
2018-07-28T16:59:52.025Z,95832.73
2018-07-28T17:02:22.451Z,95849.25
2018-07-28T17:04:52.817Z,95854.47
2018-07-28T17:14:12.787Z,95872.43
2018-07-28T17:16:43.288Z,95879.28
2018-07-28T17:19:13.624Z,95882.78
2018-07-28T17:21:44.207Z,95880.81
2018-07-28T17:24:14.712Z,95883.23
2018-07-28T17:26:45.226Z,95890.81
2018-07-28T17:29:15.747Z,95897.84
2018-07-28T17:31:46.097Z,95893.34
2018-07-28T17:34:16.631Z,95893.71
2018-07-28T17:36:46.979Z,95896.91
2018-07-28T17:39:26.630Z,95905.08
2018-07-28T17:41:57.385Z,95913.86
2018-07-28T17:44:27.759Z,95919.96
2018-07-28T17:46:58.278Z,95912.78
2018-07-28T17:49:28.692Z,95915.81
2018-07-28T17:51:59.841Z,95920.52
2018-07-28T17:54:30.877Z,95919.44
2018-07-28T17:57:01.516Z,95920.85
2018-07-28T17:59:32.311Z,95916.70
2018-07-28T18:02:02.869Z,95906.95
2018-07-28T18:04:33.286Z,95900.22
2018-07-28T18:07:03.840Z,95902.39
2018-07-28T18:09:34.563Z,95909.56
2018-07-28T18:12:04.931Z,95902.81
2018-07-28T18:14:35.455Z,95904.06
2018-07-28T18:17:05.871Z,95902.36
2018-07-28T18:19:36.307Z,95910.53
2018-07-28T18:22:07.100Z,95904.43
2018-07-28T18:24:37.945Z,95904.95
2018-07-28T18:27:08.386Z,95919.45
2018-07-28T18:29:38.948Z,95916.91
2018-07-28T18:32:09.631Z,95928.08
2018-07-28T18:34:40.396Z,95921.02
2018-07-28T18:37:10.794Z,95915.78
2018-07-28T18:39:41.179Z,95916.52
2018-07-28T18:42:11.614Z,95912.09
2018-07-28T18:44:42.056Z,95919.92
2018-07-28T18:47:12.596Z,95921.69
2018-07-28T18:49:43.332Z,95927.00
2018-07-28T18:52:13.700Z,95929.98
2018-07-28T18:54:44.074Z,95931.70
2018-07-28T18:57:14.984Z,95937.91
2018-07-28T18:59:45.351Z,95936.14
2018-07-28T19:02:15.812Z,95946.16
2018-07-28T19:04:46.471Z,95942.34
2018-07-28T19:07:17.267Z,95954.36
2018-07-28T19:09:50.884Z,95956.55
2018-07-28T19:12:26.108Z,95962.26
2018-07-28T19:14:56.500Z,95963.33
2018-07-28T19:17:32.219Z,95956.09
2018-07-28T19:20:03.033Z,95954.86
2018-07-28T19:22:38.598Z,95957.68
2018-07-28T19:25:09.228Z,95955.22
2018-07-28T19:27:39.770Z,95956.81
2018-07-28T19:30:10.141Z,95961.31
2018-07-28T19:32:40.728Z,95955.29
2018-07-28T19:35:11.399Z,95960.25
2018-07-28T19:37:42.451Z,95957.17
2018-07-28T19:40:12.904Z,95969.34
2018-07-28T19:42:49.971Z,95974.14
2018-07-28T19:45:20.869Z,95986.75
2018-07-28T19:47:51.476Z,95982.76
2018-07-28T19:50:21.880Z,95987.52
2018-07-28T19:52:52.233Z,95990.30
2018-07-28T19:55:22.933Z,95993.21
2018-07-28T19:57:53.342Z,95991.08
2018-07-28T20:00:23.696Z,95989.54
2018-07-28T20:02:54.096Z,95984.60
2018-07-28T20:05:24.901Z,95988.62
2018-07-28T20:07:55.272Z,95999.55
2018-07-28T20:10:25.665Z,95987.05
2018-07-28T20:12:56.167Z,95992.13
2018-07-28T20:15:26.820Z,95998.15
2018-07-28T20:17:57.545Z,95993.39
2018-07-28T20:20:28.207Z,95989.53
2018-07-28T20:22:58.575Z,95992.28
2018-07-28T20:25:29.019Z,96001.20
2018-07-28T20:27:59.760Z,95999.08
2018-07-28T20:30:30.449Z,95994.75
2018-07-28T20:33:00.879Z,95988.57
2018-07-28T20:35:31.250Z,95999.05
2018-07-28T20:38:01.650Z,96003.95
2018-07-28T20:40:32.032Z,96012.13
2018-07-28T20:43:02.645Z,96008.89
2018-07-28T20:45:33.049Z,96007.67
2018-07-28T20:48:03.467Z,96006.73
2018-07-28T20:50:34.159Z,96003.20
2018-07-28T20:53:04.611Z,96000.58
2018-07-28T20:55:35.367Z,96009.50
2018-07-28T20:58:05.829Z,96009.36
2018-07-28T21:00:37.491Z,96010.44
2018-07-28T21:03:08.349Z,96009.97
2018-07-28T21:05:38.787Z,96011.66
2018-07-28T21:08:09.978Z,96012.10
2018-07-28T21:10:40.401Z,96006.69
2018-07-28T21:13:10.817Z,96008.18
2018-07-28T21:15:45.130Z,96012.64
2018-07-28T21:18:15.535Z,96010.47
2018-07-28T21:20:46.258Z,96007.87
2018-07-28T21:23:17.581Z,96001.20
2018-07-28T21:25:48.773Z,96004.32
2018-07-28T21:28:19.714Z,96007.70
2018-07-28T21:30:50.759Z,96004.45
2018-07-28T21:33:21.088Z,96008.43
2018-07-28T21:35:52.747Z,96013.23
2018-07-28T21:38:23.973Z,96008.17
2018-07-28T21:40:54.415Z,96010.42
2018-07-28T21:43:24.821Z,96010.73
2018-07-28T21:45:55.232Z,96013.48
2018-07-28T21:48:25.759Z,96018.37
2018-07-28T21:50:56.603Z,96029.75
2018-07-28T21:53:27.381Z,96030.04
2018-07-28T21:55:57.827Z,96028.28
2018-07-28T21:58:28.201Z,96029.84
2018-07-28T22:11:47.029Z,96030.55
2018-07-28T22:14:18.175Z,96028.78
2018-07-28T22:16:48.660Z,96025.77
2018-07-28T22:19:19.375Z,96025.80
2018-07-28T22:21:50.535Z,96033.01
2018-07-28T22:24:21.015Z,96033.88
2018-07-28T22:26:51.763Z,96039.64
2018-07-28T22:29:22.304Z,96034.95
2018-07-28T22:31:52.773Z,96021.81
2018-07-28T22:34:23.149Z,96033.28
2018-07-28T22:36:53.800Z,96029.16
2018-07-28T22:39:24.839Z,96032.03
2018-07-28T22:41:55.321Z,96029.91
2018-07-28T22:44:25.749Z,96026.69
2018-07-28T22:46:56.852Z,96035.44
2018-07-28T22:49:27.309Z,96031.23
2018-07-28T22:51:57.967Z,96030.52
2018-07-28T22:54:28.365Z,96035.66
2018-07-28T22:56:58.779Z,96032.84
2018-07-28T22:59:29.287Z,96034.86
2018-07-28T23:01:59.677Z,96025.75
2018-07-28T23:04:30.127Z,96035.11
2018-07-28T23:07:00.515Z,96031.48
2018-07-28T23:09:31.221Z,96034.56
2018-07-28T23:12:01.599Z,96039.02
2018-07-28T23:14:32.136Z,96037.06
2018-07-28T23:17:02.051Z,96035.95
2018-07-28T23:19:34.108Z,96042.75
2018-07-28T23:22:04.621Z,96036.29
2018-07-28T23:24:35.467Z,96042.69
2018-07-28T23:27:06.294Z,96044.23
2018-07-28T23:29:36.253Z,96047.05
2018-07-28T23:32:07.418Z,96057.00
2018-07-28T23:34:37.174Z,96049.81
2018-07-28T23:37:07.844Z,96054.47
2018-07-28T23:39:38.297Z,96053.55
2018-07-28T23:42:08.716Z,96054.55
2018-07-28T23:44:41.080Z,96055.08
2018-07-28T23:47:11.436Z,96051.11
2018-07-28T23:49:42.383Z,96049.45
2018-07-28T23:52:13.066Z,96051.61
2018-07-28T23:54:43.469Z,96048.34
2018-07-28T23:57:14.735Z,96044.42
2018-07-28T23:59:45.150Z,96046.36
